Time;durP1;ratioP1;P1;durP2;ratioP2;P2;SDS_P1;SDS_P2;PMS_P1;PMS_P2;Temp;Humidity;BMP_temperature;BMP_pressure;BME280_temperature;BME280_humidity;BME280_pressure;Samples;Min_cycle;Max_cycle;Signal;HPM_P1;HPM_P2
2022/12/15 00:42:40;;;;;;;36.72;16.95;;;;;;;;;;8483583;28;20051;-90
2022/12/15 00:46:55;;;;;;;29.90;13.93;;;;;;;;;;8496504;28;20044;-90
2022/12/15 00:50:59;;;;;;;29.98;14.52;;;;;;;;;;8496010;28;20059;-88
2022/12/15 01:21:07;;;;;;;30.42;12.57;;;;;;;;;;8503142;27;20070;-83
2022/12/15 01:25:11;;;;;;;25.83;13.23;;;;;;;;;;8502885;27;20043;-89
2022/12/15 01:29:14;;;;;;;26.88;12.63;;;;;;;;;;8502595;27;20491;-91
2022/12/15 01:33:18;;;;;;;32.65;12.82;;;;;;;;;;8502155;27;20047;-83
2022/12/15 01:37:21;;;;;;;24.50;12.07;;;;;;;;;;8500650;27;20043;-90
2022/12/15 01:41:25;;;;;;;28.20;12.38;;;;;;;;;;8490226;27;20051;-89
2022/12/15 01:46:03;;;;;;;22.70;10.60;;;;;;;;;;8488817;27;20043;-83
2022/12/15 01:50:13;;;;;;;27.95;13.38;;;;;;;;;;8360860;28;20045;-89
2022/12/15 01:54:19;;;;;;;36.58;16.67;;;;;;;;;;8347179;28;20045;-89
2022/12/15 01:58:24;;;;;;;39.25;16.05;;;;;;;;;;8351698;28;20056;-92
2022/12/15 02:02:29;;;;;;;36.97;14.68;;;;;;;;;;8346378;28;20460;-84
2022/12/15 02:06:32;;;;;;;31.40;14.80;;;;;;;;;;8346477;28;20053;-92
2022/12/15 02:10:45;;;;;;;30.45;13.23;;;;;;;;;;8352542;28;20052;-89
2022/12/15 02:15:05;;;;;;;23.13;11.40;;;;;;;;;;8348643;28;20095;-89
2022/12/15 02:19:31;;;;;;;30.30;12.90;;;;;;;;;;8385746;27;20054;-84
2022/12/15 02:24:09;;;;;;;20.42;10.30;;;;;;;;;;8485982;27;20440;-89
2022/12/15 02:28:16;;;;;;;22.63;12.10;;;;;;;;;;8484087;27;20068;-83
2022/12/15 02:32:25;;;;;;;29.63;11.00;;;;;;;;;;8488779;27;20038;-90
2022/12/15 02:36:32;;;;;;;24.25;11.40;;;;;;;;;;8489919;27;20120;-85
2022/12/15 02:40:36;;;;;;;26.45;12.05;;;;;;;;;;8497534;27;20460;-90
2022/12/15 02:44:42;;;;;;;23.23;11.23;;;;;;;;;;8488438;27;20494;-90
2022/12/15 02:49:00;;;;;;;24.77;12.25;;;;;;;;;;8488898;27;20534;-89
2022/12/15 02:53:17;;;;;;;25.10;11.57;;;;;;;;;;8493214;27;20039;-83
2022/12/15 02:57:28;;;;;;;28.58;12.07;;;;;;;;;;8486043;27;20044;-90
2022/12/15 03:01:35;;;;;;;29.27;12.37;;;;;;;;;;8489451;27;20066;-87
2022/12/15 03:05:40;;;;;;;33.42;13.80;;;;;;;;;;8483810;27;20046;-87
2022/12/15 03:09:42;;;;;;;26.20;11.77;;;;;;;;;;8475172;27;20414;-89
2022/12/15 03:13:45;;;;;;;27.30;11.13;;;;;;;;;;8482616;27;20046;-92
2022/12/15 03:17:48;;;;;;;28.48;11.15;;;;;;;;;;8480811;27;20448;-91
2022/12/15 03:21:53;;;;;;;31.50;13.00;;;;;;;;;;8498199;27;20049;-83
2022/12/15 03:25:56;;;;;;;33.55;12.90;;;;;;;;;;8488237;27;20113;-82
2022/12/15 03:29:58;;;;;;;28.35;15.32;;;;;;;;;;8499083;27;20053;-89
2022/12/15 03:34:04;;;;;;;32.38;12.48;;;;;;;;;;8496647;27;20043;-89
2022/12/15 03:38:08;;;;;;;29.02;13.35;;;;;;;;;;8484157;27;20146;-86
2022/12/15 03:42:11;;;;;;;70.53;26.67;;;;;;;;;;8497735;27;20043;-89
2022/12/15 03:46:13;;;;;;;49.30;20.30;;;;;;;;;;8497714;27;20092;-87
2022/12/15 03:50:18;;;;;;;28.30;13.27;;;;;;;;;;8498016;27;20118;-86
2022/12/15 03:54:22;;;;;;;40.28;16.65;;;;;;;;;;8497307;27;20057;-84
2022/12/15 03:58:25;;;;;;;37.38;16.30;;;;;;;;;;8497995;27;20047;-89
2022/12/15 04:02:28;;;;;;;44.55;18.33;;;;;;;;;;8497749;27;20070;-85
2022/12/15 04:06:31;;;;;;;31.40;13.93;;;;;;;;;;8497416;27;20047;-83
2022/12/15 04:10:36;;;;;;;39.45;16.30;;;;;;;;;;8497292;27;20122;-88
2022/12/15 04:14:41;;;;;;;48.05;21.10;;;;;;;;;;8496674;27;20035;-89
2022/12/15 04:18:44;;;;;;;34.30;16.30;;;;;;;;;;8497254;27;20054;-86
2022/12/15 04:22:48;;;;;;;55.63;20.98;;;;;;;;;;8496696;27;20050;-86
2022/12/15 05:32:11;;;;;;;56.20;20.45;;;;;;;;;;8495888;28;20050;-82
2022/12/15 05:36:15;;;;;;;46.63;18.38;;;;;;;;;;8495441;28;20139;-87
2022/12/15 05:40:18;;;;;;;48.25;21.10;;;;;;;;;;8495403;28;20054;-86
2022/12/15 05:44:21;;;;;;;59.70;24.23;;;;;;;;;;8495343;28;20083;-86
2022/12/15 05:48:24;;;;;;;56.25;23.98;;;;;;;;;;8495623;28;20486;-82
2022/12/15 05:52:28;;;;;;;51.97;21.08;;;;;;;;;;8500509;27;20054;-87
2022/12/15 05:56:31;;;;;;;51.55;20.75;;;;;;;;;;8495768;27;20119;-87
2022/12/15 06:00:33;;;;;;;49.13;22.60;;;;;;;;;;8487052;27;20555;-83
2022/12/15 06:04:36;;;;;;;45.72;21.00;;;;;;;;;;8501381;27;20039;-87
2022/12/15 06:08:42;;;;;;;63.85;26.42;;;;;;;;;;8501245;27;20493;-87
2022/12/15 06:12:44;;;;;;;48.45;18.98;;;;;;;;;;8501295;27;20045;-88
2022/12/15 06:16:47;;;;;;;56.38;18.92;;;;;;;;;;8479227;27;20075;-90
2022/12/15 06:20:51;;;;;;;45.97;19.23;;;;;;;;;;8499463;27;20228;-91
2022/12/15 06:24:55;;;;;;;44.30;18.13;;;;;;;;;;8496470;27;20402;-83
2022/12/15 06:29:01;;;;;;;53.17;20.40;;;;;;;;;;8496248;27;20136;-89
2022/12/15 06:33:04;;;;;;;53.58;17.67;;;;;;;;;;8479399;27;20043;-84
2022/12/15 06:37:07;;;;;;;93.60;28.20;;;;;;;;;;8489936;27;20475;-83
2022/12/15 06:41:13;;;;;;;69.18;25.75;;;;;;;;;;8499932;27;20043;-86
2022/12/15 06:45:17;;;;;;;59.55;22.20;;;;;;;;;;8488035;27;20415;-84
2022/12/15 06:49:21;;;;;;;55.13;23.85;;;;;;;;;;8499710;27;20047;-83
2022/12/15 06:53:24;;;;;;;52.10;19.33;;;;;;;;;;8499012;27;20047;-84
2022/12/15 06:57:29;;;;;;;29.60;10.50;;;;;;;;;;8499393;27;20148;-84
2022/12/15 07:01:32;;;;;;;54.30;19.35;;;;;;;;;;8498999;27;20055;-84
2022/12/15 07:05:35;;;;;;;49.72;17.77;;;;;;;;;;8499286;27;20054;-83
2022/12/15 07:09:38;;;;;;;50.80;19.52;;;;;;;;;;8484742;27;20079;-85
2022/12/15 07:13:42;;;;;;;46.17;17.95;;;;;;;;;;8498308;27;20043;-89
2022/12/15 07:17:44;;;;;;;50.50;17.73;;;;;;;;;;8496214;27;20054;-88
2022/12/15 07:21:47;;;;;;;53.88;18.25;;;;;;;;;;8491752;27;20566;-90
2022/12/15 07:25:50;;;;;;;61.67;22.13;;;;;;;;;;8495604;27;20069;-89
2022/12/15 07:29:54;;;;;;;53.38;20.25;;;;;;;;;;8491577;27;20041;-90
2022/12/15 07:33:57;;;;;;;53.65;20.33;;;;;;;;;;8491263;27;20108;-91
2022/12/15 07:38:00;;;;;;;45.30;18.52;;;;;;;;;;8492238;27;20118;-91
2022/12/15 07:42:03;;;;;;;54.17;20.02;;;;;;;;;;8473767;27;20055;-91
2022/12/15 07:46:07;;;;;;;63.55;21.13;;;;;;;;;;8488767;27;20054;-85
2022/12/15 07:50:10;;;;;;;53.17;19.42;;;;;;;;;;8494521;27;20043;-84
2022/12/15 07:54:14;;;;;;;52.90;20.08;;;;;;;;;;8496513;27;20049;-89
2022/12/15 07:58:17;;;;;;;64.43;24.10;;;;;;;;;;8483944;27;20398;-85
2022/12/15 08:02:21;;;;;;;66.63;24.42;;;;;;;;;;8491965;27;20043;-85
2022/12/15 08:06:24;;;;;;;58.45;23.63;;;;;;;;;;8497144;27;20035;-88
2022/12/15 08:10:27;;;;;;;61.28;23.00;;;;;;;;;;8494554;27;20043;-88
2022/12/15 08:14:31;;;;;;;79.50;26.65;;;;;;;;;;8487591;27;20043;-88
2022/12/15 08:18:35;;;;;;;52.33;21.02;;;;;;;;;;8489005;27;20436;-89
2022/12/15 08:22:38;;;;;;;64.55;22.25;;;;;;;;;;8490367;27;20142;-89
2022/12/15 08:26:42;;;;;;;51.78;19.70;;;;;;;;;;8489196;27;20036;-88
2022/12/15 08:30:46;;;;;;;56.42;22.73;;;;;;;;;;8486145;27;20063;-88
2022/12/15 08:34:52;;;;;;;62.33;21.08;;;;;;;;;;8488608;27;20122;-91
2022/12/15 08:38:57;;;;;;;65.82;22.60;;;;;;;;;;8475365;27;20039;-85
2022/12/15 08:42:59;;;;;;;70.22;24.67;;;;;;;;;;8495530;27;20050;-87
2022/12/15 08:47:02;;;;;;;62.72;22.20;;;;;;;;;;8497531;28;20501;-90
2022/12/15 08:51:07;;;;;;;57.83;22.73;;;;;;;;;;8482886;28;20039;-91
2022/12/15 08:55:11;;;;;;;65.72;22.98;;;;;;;;;;8494808;28;20043;-92
2022/12/15 08:59:14;;;;;;;60.55;23.52;;;;;;;;;;8486092;28;20112;-89
2022/12/15 09:03:17;;;;;;;52.15;20.48;;;;;;;;;;8493516;28;20047;-86
2022/12/15 09:07:21;;;;;;;65.93;23.50;;;;;;;;;;8483684;28;20048;-82
2022/12/15 09:11:27;;;;;;;48.38;19.05;;;;;;;;;;8498767;28;20076;-94
2022/12/15 09:15:31;;;;;;;73.47;25.33;;;;;;;;;;8487539;28;20093;-89
2022/12/15 09:19:34;;;;;;;65.07;24.45;;;;;;;;;;8489096;28;20059;-85
2022/12/15 09:23:39;;;;;;;54.70;22.25;;;;;;;;;;8476220;27;20074;-88
2022/12/15 09:27:41;;;;;;;75.40;26.40;;;;;;;;;;8486436;27;20051;-94
2022/12/15 09:31:45;;;;;;;68.72;22.45;;;;;;;;;;8486351;27;20487;-83
2022/12/15 09:35:50;;;;;;;66.38;26.08;;;;;;;;;;8495393;27;20371;-92
2022/12/15 09:39:55;;;;;;;75.97;27.85;;;;;;;;;;8505218;27;20054;-91
2022/12/15 09:44:01;;;;;;;63.42;22.98;;;;;;;;;;8503265;27;20130;-83
2022/12/15 09:48:11;;;;;;;59.53;23.05;;;;;;;;;;8495561;27;20031;-94
2022/12/15 09:52:17;;;;;;;46.88;18.52;;;;;;;;;;8484417;27;20043;-93
2022/12/15 09:56:27;;;;;;;72.95;25.27;;;;;;;;;;8495733;27;20043;-82
2022/12/15 10:00:37;;;;;;;68.20;25.55;;;;;;;;;;8502639;27;20043;-86
2022/12/15 10:04:50;;;;;;;70.82;25.65;;;;;;;;;;8502497;27;20375;-89
2022/12/15 10:08:56;;;;;;;69.25;25.90;;;;;;;;;;8492181;27;20047;-92
2022/12/15 10:13:06;;;;;;;67.20;24.48;;;;;;;;;;8483368;27;20398;-90
2022/12/15 10:17:21;;;;;;;71.68;27.63;;;;;;;;;;8478142;27;20047;-91
2022/12/15 10:21:28;;;;;;;73.13;29.02;;;;;;;;;;8490800;27;20049;-81
2022/12/15 10:25:45;;;;;;;75.57;27.50;;;;;;;;;;8494424;27;20224;-82
2022/12/15 10:29:58;;;;;;;77.90;29.52;;;;;;;;;;8484377;27;20044;-84
2022/12/15 10:34:09;;;;;;;76.30;29.02;;;;;;;;;;8483393;27;20067;-87
2022/12/15 10:38:24;;;;;;;62.53;23.40;;;;;;;;;;8485776;27;20042;-93
2022/12/15 10:42:28;;;;;;;75.93;30.23;;;;;;;;;;8491697;27;20071;-94
2022/12/15 10:46:32;;;;;;;85.35;29.67;;;;;;;;;;8497174;27;20069;-89
2022/12/15 10:50:35;;;;;;;72.15;30.33;;;;;;;;;;8492399;27;20084;-95
2022/12/15 10:54:45;;;;;;;69.20;27.77;;;;;;;;;;8485698;27;20395;-93
2022/12/15 10:58:50;;;;;;;37.45;17.88;;;;;;;;;;8490925;27;20055;-85
2022/12/15 11:02:55;;;;;;;77.95;29.77;;;;;;;;;;8495214;27;20070;-88
2022/12/15 11:07:01;;;;;;;59.75;25.95;;;;;;;;;;8498077;27;20046;-94
2022/12/15 11:15:50;;;;;;;75.57;30.63;;;;;;;;;;8467979;27;20043;-83
2022/12/15 11:20:00;;;;;;;70.28;26.83;;;;;;;;;;8495764;27;20059;-87
2022/12/15 11:24:12;;;;;;;49.58;20.98;;;;;;;;;;8481281;27;20047;-86
2022/12/15 11:28:18;;;;;;;56.72;25.42;;;;;;;;;;8478271;27;20065;-92
2022/12/15 11:32:26;;;;;;;28.83;11.50;;;;;;;;;;8479583;27;20142;-83
2022/12/15 11:36:58;;;;;;;74.28;28.08;;;;;;;;;;8477623;27;20547;-92
2022/12/15 11:41:13;;;;;;;67.03;25.02;;;;;;;;;;8492276;27;20043;-81
2022/12/15 11:45:21;;;;;;;62.95;26.17;;;;;;;;;;8481709;27;20180;-84
2022/12/15 11:49:57;;;;;;;61.80;25.25;;;;;;;;;;8470764;27;20122;-85
2022/12/15 11:54:16;;;;;;;55.47;23.77;;;;;;;;;;8484770;27;20047;-90
2022/12/15 11:58:47;;;;;;;56.30;24.02;;;;;;;;;;8476124;27;20043;-85
2022/12/15 12:03:02;;;;;;;71.55;28.52;;;;;;;;;;8475251;27;20047;-86
2022/12/15 12:07:15;;;;;;;83.93;35.35;;;;;;;;;;8464225;27;20478;-83
2022/12/15 12:11:26;;;;;;;53.17;23.85;;;;;;;;;;8471584;27;20043;-82
2022/12/15 12:15:43;;;;;;;61.00;25.15;;;;;;;;;;8464949;27;20075;-84
2022/12/15 12:19:55;;;;;;;57.45;25.33;;;;;;;;;;8472698;27;20210;-84
2022/12/15 12:24:02;;;;;;;65.78;25.95;;;;;;;;;;8468557;27;20039;-85
2022/12/15 12:28:16;;;;;;;55.03;21.65;;;;;;;;;;8470522;27;20057;-84
2022/12/15 12:32:29;;;;;;;59.85;25.85;;;;;;;;;;8462275;27;20440;-83
2022/12/15 12:36:31;;;;;;;55.85;24.05;;;;;;;;;;8474145;27;20680;-85
2022/12/15 12:40:48;;;;;;;62.20;26.35;;;;;;;;;;8478128;27;20035;-83
2022/12/15 12:44:54;;;;;;;44.97;18.63;;;;;;;;;;8491056;27;20558;-85
2022/12/15 12:49:04;;;;;;;50.40;20.77;;;;;;;;;;8473124;28;20844;-90
2022/12/15 12:53:25;;;;;;;47.20;20.55;;;;;;;;;;8489521;28;20039;-90
2022/12/15 12:57:36;;;;;;;60.15;23.25;;;;;;;;;;8473795;28;20118;-83
2022/12/15 13:01:44;;;;;;;50.97;22.30;;;;;;;;;;8474244;27;20501;-83
2022/12/15 13:05:53;;;;;;;37.70;15.65;;;;;;;;;;8471916;27;20506;-85
2022/12/15 13:10:13;;;;;;;64.20;23.85;;;;;;;;;;8483155;27;20047;-87
2022/12/15 13:14:19;;;;;;;46.80;19.73;;;;;;;;;;8480710;27;20087;-87
2022/12/15 13:18:25;;;;;;;49.67;20.02;;;;;;;;;;8491660;27;20043;-84
2022/12/15 13:22:32;;;;;;;58.83;21.48;;;;;;;;;;8485988;27;20046;-85
2022/12/15 13:26:45;;;;;;;68.93;25.83;;;;;;;;;;8468506;27;20059;-82
2022/12/15 13:31:27;;;;;;;54.50;22.55;;;;;;;;;;8491565;27;20047;-89
2022/12/15 13:35:33;;;;;;;52.63;21.30;;;;;;;;;;8477634;27;20135;-84
2022/12/15 13:39:53;;;;;;;37.10;14.48;;;;;;;;;;8472207;27;20073;-81
2022/12/15 13:44:00;;;;;;;41.10;15.75;;;;;;;;;;8480333;27;20062;-88
2022/12/15 13:48:13;;;;;;;44.55;17.17;;;;;;;;;;8471642;27;20891;-89
2022/12/15 13:52:27;;;;;;;49.10;18.70;;;;;;;;;;8478165;27;20536;-88
2022/12/15 13:56:46;;;;;;;56.30;21.88;;;;;;;;;;8475854;27;20186;-86
2022/12/15 14:00:51;;;;;;;45.67;17.50;;;;;;;;;;8468651;27;20395;-86
2022/12/15 14:05:16;;;;;;;58.58;23.20;;;;;;;;;;8482737;27;20050;-84
2022/12/15 14:09:27;;;;;;;64.78;23.20;;;;;;;;;;8485820;27;20085;-86
2022/12/15 14:13:31;;;;;;;58.63;21.17;;;;;;;;;;8492798;27;20135;-92
2022/12/15 14:17:37;;;;;;;49.25;21.80;;;;;;;;;;8492069;27;20172;-92
2022/12/15 14:21:40;;;;;;;58.20;24.55;;;;;;;;;;8479168;27;20140;-88
2022/12/15 14:25:56;;;;;;;55.45;20.05;;;;;;;;;;8498933;27;20043;-84
2022/12/15 14:30:21;;;;;;;43.35;18.83;;;;;;;;;;8491497;27;20127;-86
2022/12/15 14:34:29;;;;;;;50.95;20.98;;;;;;;;;;8488214;27;20043;-92
2022/12/15 14:38:40;;;;;;;56.83;21.33;;;;;;;;;;8486634;27;20056;-84
2022/12/15 14:42:45;;;;;;;14.20;7.53;;;;;;;;;;8498938;27;20175;-88
2022/12/15 14:46:50;;;;;;;32.97;13.80;;;;;;;;;;8488625;27;20142;-92
2022/12/15 14:51:04;;;;;;;42.78;17.77;;;;;;;;;;8495782;27;20062;-83
2022/12/15 14:55:31;;;;;;;45.70;19.95;;;;;;;;;;8497056;27;20126;-83
2022/12/15 14:59:35;;;;;;;34.13;14.77;;;;;;;;;;8471614;27;20086;-90
2022/12/15 15:03:41;;;;;;;32.38;14.18;;;;;;;;;;8498318;27;20070;-94
2022/12/15 15:07:46;;;;;;;41.38;17.65;;;;;;;;;;8492210;27;20047;-93
2022/12/15 15:11:52;;;;;;;42.17;17.85;;;;;;;;;;8486341;27;20066;-93
2022/12/15 15:16:04;;;;;;;48.05;16.77;;;;;;;;;;8481381;27;20046;-83
2022/12/15 15:20:21;;;;;;;51.53;22.02;;;;;;;;;;8477681;27;20563;-90
2022/12/15 15:24:30;;;;;;;51.33;20.05;;;;;;;;;;8487886;27;20118;-86
2022/12/15 15:28:37;;;;;;;57.65;23.55;;;;;;;;;;8490925;27;20050;-93
2022/12/15 15:32:54;;;;;;;48.30;22.27;;;;;;;;;;8464195;27;20466;-85
2022/12/15 15:36:57;;;;;;;48.60;19.90;;;;;;;;;;8492428;27;20039;-83
2022/12/15 15:41:02;;;;;;;48.08;21.23;;;;;;;;;;8495629;27;20122;-90
2022/12/15 15:45:14;;;;;;;40.50;18.73;;;;;;;;;;8492097;27;20051;-82
2022/12/15 15:49:23;;;;;;;44.45;18.13;;;;;;;;;;8479458;27;20557;-90
2022/12/15 15:53:30;;;;;;;41.85;19.10;;;;;;;;;;8491035;27;20482;-91
2022/12/15 15:57:43;;;;;;;47.70;17.83;;;;;;;;;;8479384;27;20051;-82
2022/12/15 16:02:07;;;;;;;44.45;19.85;;;;;;;;;;8494683;27;20073;-83
2022/12/15 16:06:30;;;;;;;40.22;18.02;;;;;;;;;;8491441;27;20676;-86
2022/12/15 16:10:34;;;;;;;46.10;18.08;;;;;;;;;;8491926;27;20047;-84
2022/12/15 16:14:40;;;;;;;40.58;18.75;;;;;;;;;;8468135;27;20159;-90
2022/12/15 16:18:44;;;;;;;226.40;66.63;;;;;;;;;;8468929;27;20048;-83
2022/12/15 16:22:54;;;;;;;93.43;35.03;;;;;;;;;;8475617;27;20047;-87
2022/12/15 16:26:59;;;;;;;278.85;76.22;;;;;;;;;;8487598;27;20550;-89
2022/12/15 16:31:13;;;;;;;53.92;22.10;;;;;;;;;;8486619;27;20050;-82
2022/12/15 16:35:21;;;;;;;36.85;14.82;;;;;;;;;;8475952;27;20524;-89
2022/12/15 16:39:51;;;;;;;100.63;32.67;;;;;;;;;;8475347;27;20076;-85
2022/12/15 16:44:13;;;;;;;97.65;30.70;;;;;;;;;;8477525;27;20051;-92
2022/12/15 16:48:22;;;;;;;46.38;19.00;;;;;;;;;;8441313;28;20070;-84
2022/12/15 16:52:36;;;;;;;33.05;17.42;;;;;;;;;;8474782;28;20045;-90
2022/12/15 16:57:10;;;;;;;29.70;13.82;;;;;;;;;;8492928;28;20043;-91
2022/12/15 17:01:48;;;;;;;67.60;22.92;;;;;;;;;;8434763;28;20058;-82
2022/12/15 17:06:10;;;;;;;90.60;27.70;;;;;;;;;;8492729;28;20050;-83
2022/12/15 17:10:35;;;;;;;105.90;35.40;;;;;;;;;;8484935;28;20577;-82
2022/12/15 17:14:49;;;;;;;36.08;15.55;;;;;;;;;;8459944;28;20039;-82
2022/12/15 17:19:02;;;;;;;45.00;18.90;;;;;;;;;;8487166;28;20051;-83
2022/12/15 17:23:29;;;;;;;86.03;26.60;;;;;;;;;;8473697;28;20559;-84
2022/12/15 17:27:43;;;;;;;147.35;38.88;;;;;;;;;;8483026;28;20108;-82
2022/12/15 17:31:52;;;;;;;88.18;32.10;;;;;;;;;;8469871;28;20487;-88
2022/12/15 17:36:01;;;;;;;118.90;35.60;;;;;;;;;;8492714;28;20059;-87
2022/12/15 17:40:14;;;;;;;49.80;17.23;;;;;;;;;;8494362;28;20414;-91
2022/12/15 17:44:21;;;;;;;31.80;14.77;;;;;;;;;;8477102;27;20051;-93
2022/12/15 17:48:26;;;;;;;55.58;20.02;;;;;;;;;;8483273;27;20112;-94
2022/12/15 17:52:33;;;;;;;36.42;15.45;;;;;;;;;;8488923;27;20111;-83
2022/12/15 17:56:36;;;;;;;34.83;16.88;;;;;;;;;;8487340;27;20512;-81
2022/12/15 18:00:40;;;;;;;43.15;18.70;;;;;;;;;;8483597;27;20047;-83
2022/12/15 18:04:46;;;;;;;40.03;19.02;;;;;;;;;;8495852;27;20104;-94
2022/12/15 18:08:48;;;;;;;43.28;19.05;;;;;;;;;;8489205;27;20043;-95
2022/12/15 18:12:51;;;;;;;66.82;25.70;;;;;;;;;;8490151;27;20126;-83
2022/12/15 18:16:55;;;;;;;55.10;22.98;;;;;;;;;;8492440;27;20475;-91
2022/12/15 18:21:12;;;;;;;42.30;19.50;;;;;;;;;;8479914;27;20081;-88
2022/12/15 18:25:19;;;;;;;54.63;23.42;;;;;;;;;;8488401;27;20039;-93
2022/12/15 18:29:30;;;;;;;50.83;20.77;;;;;;;;;;8476659;27;20050;-87
2022/12/15 18:33:44;;;;;;;50.58;22.52;;;;;;;;;;8478799;27;20872;-89
2022/12/15 18:37:58;;;;;;;47.95;21.17;;;;;;;;;;8490537;27;20463;-86
2022/12/15 18:42:08;;;;;;;44.33;20.50;;;;;;;;;;8494587;27;20114;-88
2022/12/15 18:46:13;;;;;;;33.13;14.65;;;;;;;;;;8473706;27;20081;-89
2022/12/15 18:50:20;;;;;;;53.25;24.63;;;;;;;;;;8482610;27;20138;-93
2022/12/15 18:54:25;;;;;;;40.17;17.80;;;;;;;;;;8467536;27;20084;-88
2022/12/15 18:58:30;;;;;;;50.80;22.38;;;;;;;;;;8463389;27;20122;-92
2022/12/15 19:02:34;;;;;;;44.65;20.90;;;;;;;;;;8482182;27;20044;-93
2022/12/15 19:06:39;;;;;;;123.60;43.95;;;;;;;;;;8480320;27;20067;-85
2022/12/15 19:10:51;;;;;;;70.40;27.85;;;;;;;;;;8492037;27;20047;-85
2022/12/15 19:14:57;;;;;;;35.58;16.88;;;;;;;;;;8486781;27;20122;-88
2022/12/15 19:23:22;;;;;;;39.03;19.55;;;;;;;;;;8498985;27;20043;-86
2022/12/15 19:27:27;;;;;;;63.15;25.63;;;;;;;;;;8497744;27;20039;-92
2022/12/15 19:31:31;;;;;;;99.00;33.40;;;;;;;;;;8479109;27;20406;-91
2022/12/15 19:35:35;;;;;;;137.30;51.08;;;;;;;;;;8477629;27;20039;-83
2022/12/15 19:39:40;;;;;;;96.88;43.08;;;;;;;;;;8470451;27;20058;-83
2022/12/15 19:43:45;;;;;;;69.28;27.58;;;;;;;;;;8472566;27;20044;-84
2022/12/15 19:47:50;;;;;;;66.15;26.58;;;;;;;;;;8471216;27;20058;-88
2022/12/15 19:51:54;;;;;;;63.00;25.15;;;;;;;;;;8469798;27;20116;-84
2022/12/15 19:56:00;;;;;;;305.10;103.05;;;;;;;;;;8476155;27;20043;-84
2022/12/15 20:04:45;;;;;;;82.25;28.50;;;;;;;;;;8473321;27;20100;-83
2022/12/15 20:08:55;;;;;;;65.63;27.40;;;;;;;;;;8468530;27;20212;-89
2022/12/15 20:13:02;;;;;;;46.70;20.80;;;;;;;;;;8473690;27;20036;-91
2022/12/15 20:17:07;;;;;;;80.00;28.63;;;;;;;;;;8472262;27;20130;-89
2022/12/15 20:21:10;;;;;;;79.90;28.10;;;;;;;;;;8477419;27;20039;-82
2022/12/15 20:25:18;;;;;;;54.83;22.55;;;;;;;;;;8477225;27;20090;-81
2022/12/15 20:29:27;;;;;;;80.43;28.88;;;;;;;;;;8479587;27;20055;-93
2022/12/15 20:33:32;;;;;;;110.00;34.00;;;;;;;;;;8476511;27;20039;-94
2022/12/15 20:37:36;;;;;;;76.18;27.67;;;;;;;;;;8477017;27;20043;-94
2022/12/15 20:41:39;;;;;;;58.53;22.95;;;;;;;;;;8478753;27;20038;-88
2022/12/15 20:45:44;;;;;;;63.45;23.70;;;;;;;;;;8489089;27;20051;-92
2022/12/15 20:49:49;;;;;;;68.60;28.70;;;;;;;;;;8497925;27;20039;-90
2022/12/15 20:53:56;;;;;;;80.20;33.72;;;;;;;;;;8498395;28;20047;-81
2022/12/15 20:57:59;;;;;;;73.43;28.92;;;;;;;;;;8497818;28;20070;-83
2022/12/15 21:02:04;;;;;;;69.78;29.67;;;;;;;;;;8496295;28;20035;-93
2022/12/15 21:06:12;;;;;;;111.55;40.15;;;;;;;;;;8490707;28;20039;-93
2022/12/15 21:10:17;;;;;;;68.63;32.60;;;;;;;;;;8470433;28;20053;-89
2022/12/15 21:14:24;;;;;;;72.18;26.70;;;;;;;;;;8482604;28;20051;-84
2022/12/15 21:18:29;;;;;;;61.97;25.42;;;;;;;;;;8497238;28;20047;-90
2022/12/15 21:22:34;;;;;;;73.03;27.95;;;;;;;;;;8503294;27;20047;-88
2022/12/15 21:26:37;;;;;;;47.35;22.15;;;;;;;;;;8504305;27;20129;-83
2022/12/15 21:30:41;;;;;;;68.18;26.65;;;;;;;;;;8503961;27;20039;-92
2022/12/15 21:34:45;;;;;;;49.25;21.58;;;;;;;;;;8497531;27;20047;-92
2022/12/15 21:38:52;;;;;;;57.00;20.77;;;;;;;;;;8489459;27;20126;-87
2022/12/15 21:42:55;;;;;;;41.05;19.27;;;;;;;;;;8503349;27;20055;-91
2022/12/15 21:46:59;;;;;;;70.18;29.02;;;;;;;;;;8503385;27;20051;-85
2022/12/15 21:51:02;;;;;;;190.27;59.63;;;;;;;;;;8503717;27;20124;-91
2022/12/15 21:55:14;;;;;;;167.85;56.90;;;;;;;;;;8503607;27;20134;-82
2022/12/15 21:59:20;;;;;;;58.22;27.50;;;;;;;;;;8503904;27;20431;-90
2022/12/15 22:03:22;;;;;;;47.03;19.88;;;;;;;;;;8485903;27;20073;-92
2022/12/15 22:07:25;;;;;;;55.17;22.75;;;;;;;;;;8486412;27;20411;-88
2022/12/15 22:11:31;;;;;;;64.03;27.50;;;;;;;;;;8489324;27;20529;-93
2022/12/15 22:15:34;;;;;;;42.92;18.90;;;;;;;;;;8502809;27;20558;-95
2022/12/15 22:19:40;;;;;;;107.43;41.55;;;;;;;;;;8502925;27;20135;-85
2022/12/15 22:23:42;;;;;;;440.45;137.40;;;;;;;;;;8502284;27;20051;-88
2022/12/15 22:27:47;;;;;;;97.88;37.95;;;;;;;;;;8502229;27;20078;-85
2022/12/15 22:31:50;;;;;;;62.22;28.70;;;;;;;;;;8501678;27;20047;-91
2022/12/15 22:35:55;;;;;;;98.20;37.50;;;;;;;;;;8502050;27;20043;-81
2022/12/15 22:39:57;;;;;;;91.57;32.13;;;;;;;;;;8502221;27;20356;-91
2022/12/15 22:44:02;;;;;;;185.55;59.85;;;;;;;;;;8501376;27;20079;-88
2022/12/15 22:48:05;;;;;;;68.28;28.25;;;;;;;;;;8501718;27;20164;-86
2022/12/15 22:52:16;;;;;;;62.85;26.77;;;;;;;;;;8483325;27;20131;-92
2022/12/15 22:56:25;;;;;;;194.35;60.65;;;;;;;;;;8501760;27;20096;-90
2022/12/15 23:00:30;;;;;;;57.22;25.90;;;;;;;;;;8501137;27;20043;-83
2022/12/15 23:04:34;;;;;;;53.97;21.63;;;;;;;;;;8500876;27;20115;-82
2022/12/15 23:08:36;;;;;;;33.95;15.27;;;;;;;;;;8481736;27;20043;-88
2022/12/15 23:12:39;;;;;;;49.92;18.50;;;;;;;;;;8501018;27;20071;-83
2022/12/15 23:16:45;;;;;;;42.60;18.73;;;;;;;;;;8500592;27;20047;-91
2022/12/15 23:20:47;;;;;;;33.70;14.35;;;;;;;;;;8500522;27;20039;-84
2022/12/15 23:24:50;;;;;;;47.95;18.63;;;;;;;;;;8488642;27;20062;-90
2022/12/15 23:28:54;;;;;;;33.47;15.57;;;;;;;;;;8500108;27;20039;-92
2022/12/15 23:32:58;;;;;;;35.83;16.88;;;;;;;;;;8500572;27;20063;-87
2022/12/15 23:37:01;;;;;;;38.22;16.48;;;;;;;;;;8500622;27;20066;-92
2022/12/15 23:41:04;;;;;;;37.88;15.57;;;;;;;;;;8500931;27;20084;-92
2022/12/15 23:45:08;;;;;;;42.58;18.50;;;;;;;;;;8498653;27;20558;-82
2022/12/15 23:49:12;;;;;;;48.30;17.90;;;;;;;;;;8499594;27;20100;-91
2022/12/15 23:53:15;;;;;;;43.58;17.23;;;;;;;;;;8499796;27;20494;-82
2022/12/15 23:57:18;;;;;;;43.40;16.55;;;;;;;;;;8499682;27;20050;-83
